sensor_id;sensor_type;location;lat;lon;timestamp;pressure;altitude;pressure_sealevel;temperature;humidity
80202;BME280;69521;54.454;9.928;2024-01-30T00:01:39;102641.72;;;5.84;88.49
80202;BME280;69521;54.454;9.928;2024-01-30T00:04:05;102642.66;;;5.83;88.83
80202;BME280;69521;54.454;9.928;2024-01-30T00:06:30;102637.16;;;5.86;89.02
80202;BME280;69521;54.454;9.928;2024-01-30T00:08:56;102641.47;;;5.90;88.79
80202;BME280;69521;54.454;9.928;2024-01-30T00:11:22;102635.19;;;5.91;89.11
80202;BME280;69521;54.454;9.928;2024-01-30T00:13:47;102631.59;;;5.92;88.54
80202;BME280;69521;54.454;9.928;2024-01-30T00:16:20;102636.06;;;5.92;88.74
80202;BME280;69521;54.454;9.928;2024-01-30T00:18:46;102637.53;;;5.99;89.31
80202;BME280;69521;54.454;9.928;2024-01-30T00:21:11;102629.00;;;5.91;89.19
80202;BME280;69521;54.454;9.928;2024-01-30T00:23:36;102633.47;;;5.90;89.31
80202;BME280;69521;54.454;9.928;2024-01-30T00:26:02;102627.94;;;5.95;89.22
80202;BME280;69521;54.454;9.928;2024-01-30T00:28:27;102628.94;;;5.92;89.83
80202;BME280;69521;54.454;9.928;2024-01-30T00:30:53;102625.25;;;5.95;90.06
80202;BME280;69521;54.454;9.928;2024-01-30T00:33:18;102625.06;;;5.99;89.82
80202;BME280;69521;54.454;9.928;2024-01-30T00:35:43;102629.38;;;6.02;90.00
80202;BME280;69521;54.454;9.928;2024-01-30T00:38:09;102633.88;;;6.01;90.30
80202;BME280;69521;54.454;9.928;2024-01-30T00:40:34;102629.47;;;6.00;90.56
80202;BME280;69521;54.454;9.928;2024-01-30T00:42:59;102632.13;;;6.00;90.44
80202;BME280;69521;54.454;9.928;2024-01-30T00:45:25;102630.25;;;6.02;90.58
80202;BME280;69521;54.454;9.928;2024-01-30T00:47:50;102633.06;;;5.99;91.08
80202;BME280;69521;54.454;9.928;2024-01-30T00:50:16;102640.94;;;6.02;91.14
80202;BME280;69521;54.454;9.928;2024-01-30T00:52:41;102643.00;;;5.96;91.59
80202;BME280;69521;54.454;9.928;2024-01-30T00:55:07;102632.94;;;6.02;91.31
80202;BME280;69521;54.454;9.928;2024-01-30T00:57:32;102627.34;;;6.09;91.36
80202;BME280;69521;54.454;9.928;2024-01-30T00:59:58;102628.44;;;6.03;91.27
80202;BME280;69521;54.454;9.928;2024-01-30T01:02:23;102630.25;;;6.02;91.07
80202;BME280;69521;54.454;9.928;2024-01-30T01:04:48;102633.78;;;6.03;90.69
80202;BME280;69521;54.454;9.928;2024-01-30T01:07:14;102635.59;;;6.02;91.11
80202;BME280;69521;54.454;9.928;2024-01-30T01:09:39;102627.44;;;6.05;91.60
80202;BME280;69521;54.454;9.928;2024-01-30T01:12:05;102632.94;;;6.02;91.47
80202;BME280;69521;54.454;9.928;2024-01-30T01:14:30;102631.00;;;6.06;91.48
80202;BME280;69521;54.454;9.928;2024-01-30T01:16:56;102631.91;;;6.05;91.53
80202;BME280;69521;54.454;9.928;2024-01-30T01:19:21;102637.91;;;6.12;91.01
80202;BME280;69521;54.454;9.928;2024-01-30T01:21:47;102627.06;;;6.15;90.56
80202;BME280;69521;54.454;9.928;2024-01-30T01:24:12;102621.31;;;6.24;90.41
80202;BME280;69521;54.454;9.928;2024-01-30T01:26:38;102613.44;;;6.21;90.80
80202;BME280;69521;54.454;9.928;2024-01-30T01:29:03;102611.75;;;6.18;90.75
80202;BME280;69521;54.454;9.928;2024-01-30T01:31:38;102620.00;;;6.14;90.86
80202;BME280;69521;54.454;9.928;2024-01-30T01:34:11;102611.03;;;6.15;91.13
80202;BME280;69521;54.454;9.928;2024-01-30T01:36:36;102610.91;;;6.18;90.54
80202;BME280;69521;54.454;9.928;2024-01-30T01:39:02;102603.69;;;6.20;91.00
80202;BME280;69521;54.454;9.928;2024-01-30T01:41:34;102608.16;;;6.19;90.72
80202;BME280;69521;54.454;9.928;2024-01-30T01:44:00;102605.34;;;6.22;90.71
80202;BME280;69521;54.454;9.928;2024-01-30T01:46:30;102603.41;;;6.26;90.42
80202;BME280;69521;54.454;9.928;2024-01-30T01:48:57;102594.66;;;6.22;91.04
80202;BME280;69521;54.454;9.928;2024-01-30T01:51:24;102589.25;;;6.24;90.89
80202;BME280;69521;54.454;9.928;2024-01-30T01:53:51;102582.81;;;6.28;90.41
80202;BME280;69521;54.454;9.928;2024-01-30T01:56:16;102585.63;;;6.25;90.68
80202;BME280;69521;54.454;9.928;2024-01-30T01:58:43;102584.84;;;6.23;91.11
80202;BME280;69521;54.454;9.928;2024-01-30T02:01:11;102581.16;;;6.25;91.02
80202;BME280;69521;54.454;9.928;2024-01-30T02:03:37;102575.81;;;6.25;90.16
80202;BME280;69521;54.454;9.928;2024-01-30T02:06:03;102576.53;;;6.29;89.77
80202;BME280;69521;54.454;9.928;2024-01-30T02:08:29;102577.69;;;6.23;89.85
80202;BME280;69521;54.454;9.928;2024-01-30T02:10:55;102585.69;;;6.23;89.68
80202;BME280;69521;54.454;9.928;2024-01-30T02:13:21;102584.97;;;6.20;90.09
80202;BME280;69521;54.454;9.928;2024-01-30T02:15:50;102580.56;;;6.19;90.22
80202;BME280;69521;54.454;9.928;2024-01-30T02:18:16;102578.63;;;6.22;89.39
80202;BME280;69521;54.454;9.928;2024-01-30T02:20:41;102572.41;;;6.22;88.72
80202;BME280;69521;54.454;9.928;2024-01-30T02:23:09;102573.50;;;6.18;89.29
80202;BME280;69521;54.454;9.928;2024-01-30T02:25:39;102573.34;;;6.21;88.75
80202;BME280;69521;54.454;9.928;2024-01-30T02:28:12;102569.88;;;6.19;88.29
80202;BME280;69521;54.454;9.928;2024-01-30T02:30:39;102554.13;;;6.13;88.25
80202;BME280;69521;54.454;9.928;2024-01-30T02:33:04;102558.19;;;6.01;88.97
80202;BME280;69521;54.454;9.928;2024-01-30T02:35:30;102544.09;;;5.97;88.60
80202;BME280;69521;54.454;9.928;2024-01-30T02:37:55;102541.97;;;5.85;89.07
80202;BME280;69521;54.454;9.928;2024-01-30T02:40:20;102542.22;;;5.79;88.78
80202;BME280;69521;54.454;9.928;2024-01-30T02:42:46;102533.63;;;5.72;88.94
80202;BME280;69521;54.454;9.928;2024-01-30T02:45:12;102523.22;;;5.66;89.04
80202;BME280;69521;54.454;9.928;2024-01-30T02:47:38;102518.03;;;5.63;89.12
80202;BME280;69521;54.454;9.928;2024-01-30T02:50:04;102524.22;;;5.64;88.69
80202;BME280;69521;54.454;9.928;2024-01-30T02:52:29;102522.34;;;5.66;88.26
80202;BME280;69521;54.454;9.928;2024-01-30T02:54:54;102526.97;;;5.62;88.43
80202;BME280;69521;54.454;9.928;2024-01-30T02:57:20;102521.69;;;5.61;87.78
80202;BME280;69521;54.454;9.928;2024-01-30T02:59:45;102532.44;;;5.59;88.35
80202;BME280;69521;54.454;9.928;2024-01-30T03:02:10;102513.81;;;5.58;88.21
80202;BME280;69521;54.454;9.928;2024-01-30T03:04:36;102503.28;;;5.55;88.53
80202;BME280;69521;54.454;9.928;2024-01-30T03:07:01;102498.06;;;5.52;88.32
80202;BME280;69521;54.454;9.928;2024-01-30T03:09:26;102502.63;;;5.50;88.06
80202;BME280;69521;54.454;9.928;2024-01-30T03:11:52;102508.22;;;5.43;88.30
80202;BME280;69521;54.454;9.928;2024-01-30T03:14:17;102514.50;;;5.42;88.07
80202;BME280;69521;54.454;9.928;2024-01-30T03:16:43;102515.50;;;5.40;87.96
80202;BME280;69521;54.454;9.928;2024-01-30T03:19:08;102511.03;;;5.40;88.32
80202;BME280;69521;54.454;9.928;2024-01-30T03:21:34;102513.91;;;5.36;88.27
80202;BME280;69521;54.454;9.928;2024-01-30T03:23:59;102513.91;;;5.36;88.43
80202;BME280;69521;54.454;9.928;2024-01-30T03:26:25;102520.75;;;5.21;88.71
80202;BME280;69521;54.454;9.928;2024-01-30T03:28:50;102517.78;;;5.07;88.92
80202;BME280;69521;54.454;9.928;2024-01-30T03:31:16;102520.69;;;5.01;89.08
80202;BME280;69521;54.454;9.928;2024-01-30T03:33:41;102525.53;;;4.91;89.64
80202;BME280;69521;54.454;9.928;2024-01-30T03:36:08;102523.69;;;4.93;90.02
80202;BME280;69521;54.454;9.928;2024-01-30T03:38:33;102519.88;;;4.99;89.29
80202;BME280;69521;54.454;9.928;2024-01-30T03:40:59;102522.31;;;5.05;89.45
80202;BME280;69521;54.454;9.928;2024-01-30T03:43:25;102521.25;;;5.09;88.93
80202;BME280;69521;54.454;9.928;2024-01-30T03:45:51;102521.44;;;5.04;88.90
80202;BME280;69521;54.454;9.928;2024-01-30T03:48:16;102528.50;;;5.05;88.94
80202;BME280;69521;54.454;9.928;2024-01-30T03:50:42;102515.28;;;5.02;88.99
80202;BME280;69521;54.454;9.928;2024-01-30T03:53:07;102520.69;;;5.01;88.95
80202;BME280;69521;54.454;9.928;2024-01-30T03:55:32;102508.41;;;4.97;89.69
80202;BME280;69521;54.454;9.928;2024-01-30T03:57:58;102516.34;;;4.98;89.24
80202;BME280;69521;54.454;9.928;2024-01-30T04:00:23;102504.88;;;4.96;89.13
80202;BME280;69521;54.454;9.928;2024-01-30T04:02:48;102517.41;;;4.94;88.94
80202;BME280;69521;54.454;9.928;2024-01-30T04:05:16;102497.88;;;4.94;89.24
80202;BME280;69521;54.454;9.928;2024-01-30T04:07:41;102498.94;;;4.90;89.27
80202;BME280;69521;54.454;9.928;2024-01-30T04:10:07;102501.94;;;4.82;89.62
80202;BME280;69521;54.454;9.928;2024-01-30T04:12:32;102504.47;;;4.85;89.29
80202;BME280;69521;54.454;9.928;2024-01-30T04:14:58;102498.13;;;4.88;88.97
80202;BME280;69521;54.454;9.928;2024-01-30T04:17:23;102492.88;;;4.86;89.05
80202;BME280;69521;54.454;9.928;2024-01-30T04:19:49;102487.78;;;4.80;89.20
80202;BME280;69521;54.454;9.928;2024-01-30T04:22:14;102493.38;;;4.74;89.47
80202;BME280;69521;54.454;9.928;2024-01-30T04:24:39;102498.78;;;4.72;89.25
80202;BME280;69521;54.454;9.928;2024-01-30T04:27:05;102501.44;;;4.72;89.18
80202;BME280;69521;54.454;9.928;2024-01-30T04:29:30;102504.97;;;4.73;89.47
80202;BME280;69521;54.454;9.928;2024-01-30T04:31:57;102492.56;;;4.72;89.28
80202;BME280;69521;54.454;9.928;2024-01-30T04:34:22;102489.03;;;4.71;89.19
80202;BME280;69521;54.454;9.928;2024-01-30T04:36:48;102497.03;;;4.71;89.38
80202;BME280;69521;54.454;9.928;2024-01-30T04:39:13;102483.97;;;4.65;89.25
80202;BME280;69521;54.454;9.928;2024-01-30T04:41:38;102491.22;;;4.62;89.64
80202;BME280;69521;54.454;9.928;2024-01-30T04:44:03;102491.41;;;4.57;89.68
80202;BME280;69521;54.454;9.928;2024-01-30T04:46:29;102490.41;;;4.60;89.06
80202;BME280;69521;54.454;9.928;2024-01-30T04:48:54;102493.19;;;4.57;89.30
80202;BME280;69521;54.454;9.928;2024-01-30T04:51:19;102492.25;;;4.58;89.18
80202;BME280;69521;54.454;9.928;2024-01-30T04:53:45;102492.31;;;4.56;89.46
80202;BME280;69521;54.454;9.928;2024-01-30T04:56:10;102486.19;;;4.54;89.09
80202;BME280;69521;54.454;9.928;2024-01-30T04:58:36;102476.53;;;4.52;89.32
80202;BME280;69521;54.454;9.928;2024-01-30T05:01:02;102470.19;;;4.54;89.27
80202;BME280;69521;54.454;9.928;2024-01-30T05:03:27;102478.31;;;4.51;89.52
80202;BME280;69521;54.454;9.928;2024-01-30T05:05:53;102475.66;;;4.51;88.93
80202;BME280;69521;54.454;9.928;2024-01-30T05:08:18;102472.13;;;4.51;89.24
80202;BME280;69521;54.454;9.928;2024-01-30T05:10:43;102468.47;;;4.53;88.94
80202;BME280;69521;54.454;9.928;2024-01-30T05:13:09;102467.53;;;4.54;89.22
80202;BME280;69521;54.454;9.928;2024-01-30T05:15:35;102462.44;;;4.48;88.72
80202;BME280;69521;54.454;9.928;2024-01-30T05:18:00;102465.31;;;4.43;89.23
80202;BME280;69521;54.454;9.928;2024-01-30T05:20:26;102462.75;;;4.40;88.77
80202;BME280;69521;54.454;9.928;2024-01-30T05:22:53;102463.00;;;4.34;89.25
80202;BME280;69521;54.454;9.928;2024-01-30T05:25:19;102461.91;;;4.40;89.10
80202;BME280;69521;54.454;9.928;2024-01-30T05:27:44;102475.22;;;4.40;88.51
80202;BME280;69521;54.454;9.928;2024-01-30T05:30:10;102475.47;;;4.34;88.98
80202;BME280;69521;54.454;9.928;2024-01-30T05:32:35;102477.47;;;4.27;89.11
80202;BME280;69521;54.454;9.928;2024-01-30T05:35:01;102468.03;;;4.19;89.21
80202;BME280;69521;54.454;9.928;2024-01-30T05:37:26;102472.56;;;4.16;89.60
80202;BME280;69521;54.454;9.928;2024-01-30T05:39:53;102461.03;;;4.16;89.04
80202;BME280;69521;54.454;9.928;2024-01-30T05:42:18;102471.06;;;4.09;89.33
80202;BME280;69521;54.454;9.928;2024-01-30T05:44:43;102473.84;;;4.06;89.34
80202;BME280;69521;54.454;9.928;2024-01-30T05:47:09;102471.31;;;4.03;89.12
80202;BME280;69521;54.454;9.928;2024-01-30T05:49:34;102473.16;;;4.01;89.70
80202;BME280;69521;54.454;9.928;2024-01-30T05:52:01;102470.63;;;3.98;89.34
80202;BME280;69521;54.454;9.928;2024-01-30T05:54:27;102472.47;;;3.96;89.30
80202;BME280;69521;54.454;9.928;2024-01-30T05:56:52;102467.25;;;3.93;89.29
80202;BME280;69521;54.454;9.928;2024-01-30T05:59:18;102472.59;;;3.93;89.75
80202;BME280;69521;54.454;9.928;2024-01-30T06:01:47;102460.31;;;3.89;89.77
80202;BME280;69521;54.454;9.928;2024-01-30T06:04:13;102456.59;;;3.93;89.21
80202;BME280;69521;54.454;9.928;2024-01-30T06:06:38;102469.22;;;3.88;89.54
80202;BME280;69521;54.454;9.928;2024-01-30T06:09:03;102459.44;;;3.89;89.73
80202;BME280;69521;54.454;9.928;2024-01-30T06:11:29;102451.50;;;3.87;89.69
80202;BME280;69521;54.454;9.928;2024-01-30T06:13:54;102442.94;;;3.79;89.95
80202;BME280;69521;54.454;9.928;2024-01-30T06:16:19;102434.03;;;3.80;89.62
80202;BME280;69521;54.454;9.928;2024-01-30T06:18:46;102443.00;;;3.77;89.49
80202;BME280;69521;54.454;9.928;2024-01-30T06:21:12;102437.69;;;3.77;89.29
80202;BME280;69521;54.454;9.928;2024-01-30T06:23:38;102444.06;;;3.73;89.76
80202;BME280;69521;54.454;9.928;2024-01-30T06:26:03;102437.69;;;3.77;89.59
80202;BME280;69521;54.454;9.928;2024-01-30T06:28:29;102428.84;;;3.77;89.48
80202;BME280;69521;54.454;9.928;2024-01-30T06:30:54;102432.38;;;3.77;89.01
80202;BME280;69521;54.454;9.928;2024-01-30T06:33:19;102426.97;;;3.79;89.21
80202;BME280;69521;54.454;9.928;2024-01-30T06:35:45;102429.66;;;3.79;88.61
80202;BME280;69521;54.454;9.928;2024-01-30T06:38:11;102424.38;;;3.77;88.44
80202;BME280;69521;54.454;9.928;2024-01-30T06:40:36;102423.63;;;3.74;89.07
80202;BME280;69521;54.454;9.928;2024-01-30T06:43:03;102421.88;;;3.73;88.75
80202;BME280;69521;54.454;9.928;2024-01-30T06:45:29;102422.75;;;3.73;88.82
80202;BME280;69521;54.454;9.928;2024-01-30T06:47:54;102420.78;;;3.78;88.26
80202;BME280;69521;54.454;9.928;2024-01-30T06:50:20;102425.38;;;3.75;88.77
80202;BME280;69521;54.454;9.928;2024-01-30T06:52:45;102434.22;;;3.75;88.58
80202;BME280;69521;54.454;9.928;2024-01-30T06:55:11;102426.22;;;3.75;88.67
80202;BME280;69521;54.454;9.928;2024-01-30T06:57:36;102425.38;;;3.75;88.25
80202;BME280;69521;54.454;9.928;2024-01-30T07:00:02;102432.53;;;3.73;88.32
80202;BME280;69521;54.454;9.928;2024-01-30T07:02:27;102433.41;;;3.73;88.42
80202;BME280;69521;54.454;9.928;2024-01-30T07:04:53;102435.31;;;3.70;88.71
80202;BME280;69521;54.454;9.928;2024-01-30T07:07:18;102424.84;;;3.65;88.48
80202;BME280;69521;54.454;9.928;2024-01-30T07:09:44;102426.69;;;3.63;89.28
80202;BME280;69521;54.454;9.928;2024-01-30T07:12:09;102428.50;;;3.63;89.13
80202;BME280;69521;54.454;9.928;2024-01-30T07:14:35;102412.69;;;3.58;89.13
80202;BME280;69521;54.454;9.928;2024-01-30T07:17:00;102419.00;;;3.56;89.44
80202;BME280;69521;54.454;9.928;2024-01-30T07:19:26;102402.00;;;3.60;88.94
80202;BME280;69521;54.454;9.928;2024-01-30T07:21:51;102393.94;;;3.61;88.84
80202;BME280;69521;54.454;9.928;2024-01-30T07:24:16;102399.28;;;3.61;88.92
80202;BME280;69521;54.454;9.928;2024-01-30T07:26:42;102394.88;;;3.60;89.47
80202;BME280;69521;54.454;9.928;2024-01-30T07:29:07;102390.59;;;3.56;89.36
80202;BME280;69521;54.454;9.928;2024-01-30T07:31:32;102391.47;;;3.57;88.88
80202;BME280;69521;54.454;9.928;2024-01-30T07:33:58;102399.44;;;3.57;88.97
80202;BME280;69521;54.454;9.928;2024-01-30T07:36:23;102391.53;;;3.55;89.15
80202;BME280;69521;54.454;9.928;2024-01-30T07:38:48;102378.03;;;3.60;89.30
80202;BME280;69521;54.454;9.928;2024-01-30T07:41:14;102391.34;;;3.60;88.76
80202;BME280;69521;54.454;9.928;2024-01-30T07:43:39;102391.34;;;3.60;89.19
80202;BME280;69521;54.454;9.928;2024-01-30T07:46:05;102395.63;;;3.64;88.84
80202;BME280;69521;54.454;9.928;2024-01-30T07:48:32;102391.16;;;3.64;88.61
80202;BME280;69521;54.454;9.928;2024-01-30T07:50:59;102384.94;;;3.65;88.75
80202;BME280;69521;54.454;9.928;2024-01-30T07:53:24;102379.59;;;3.65;88.58
80202;BME280;69521;54.454;9.928;2024-01-30T07:56:02;102374.91;;;3.72;89.14
80202;BME280;69521;54.454;9.928;2024-01-30T07:58:27;102369.28;;;3.79;88.55
80202;BME280;69521;54.454;9.928;2024-01-30T08:00:53;102362.78;;;3.87;88.44
80202;BME280;69521;54.454;9.928;2024-01-30T08:03:18;102359.16;;;3.89;88.42
80202;BME280;69521;54.454;9.928;2024-01-30T08:05:44;102358.16;;;3.92;88.35
80202;BME280;69521;54.454;9.928;2024-01-30T08:08:09;102350.16;;;3.92;88.35
80202;BME280;69521;54.454;9.928;2024-01-30T08:10:35;102342.81;;;3.98;88.71
80202;BME280;69521;54.454;9.928;2024-01-30T08:13:01;102326.69;;;4.01;88.46
80202;BME280;69521;54.454;9.928;2024-01-30T08:15:27;102330.91;;;4.07;88.23
80202;BME280;69521;54.454;9.928;2024-01-30T08:17:52;102337.84;;;4.11;88.67
80202;BME280;69521;54.454;9.928;2024-01-30T08:20:23;102343.84;;;4.16;88.58
80202;BME280;69521;54.454;9.928;2024-01-30T08:22:48;102347.38;;;4.16;88.21
80202;BME280;69521;54.454;9.928;2024-01-30T08:25:13;102358.59;;;4.25;88.58
80202;BME280;69521;54.454;9.928;2024-01-30T08:27:39;102370.03;;;4.27;88.46
80202;BME280;69521;54.454;9.928;2024-01-30T08:30:06;102356.53;;;4.31;88.23
80202;BME280;69521;54.454;9.928;2024-01-30T08:32:31;102368.06;;;4.32;88.27
80202;BME280;69521;54.454;9.928;2024-01-30T08:34:57;102362.50;;;4.38;88.28
80202;BME280;69521;54.454;9.928;2024-01-30T08:37:23;102358.66;;;4.45;88.09
80202;BME280;69521;54.454;9.928;2024-01-30T08:39:48;102367.19;;;4.53;87.88
80202;BME280;69521;54.454;9.928;2024-01-30T08:42:14;102362.53;;;4.58;88.02
80202;BME280;69521;54.454;9.928;2024-01-30T08:44:39;102365.75;;;4.66;87.85
80202;BME280;69521;54.454;9.928;2024-01-30T08:47:04;102354.81;;;4.72;87.53
80202;BME280;69521;54.454;9.928;2024-01-30T08:49:30;102345.63;;;4.79;88.06
80202;BME280;69521;54.454;9.928;2024-01-30T08:51:56;102352.06;;;4.94;87.83
80202;BME280;69521;54.454;9.928;2024-01-30T08:54:22;102342.00;;;5.01;87.30
80202;BME280;69521;54.454;9.928;2024-01-30T08:56:48;102344.59;;;5.02;87.27
80202;BME280;69521;54.454;9.928;2024-01-30T08:59:13;102347.06;;;5.07;87.10
80202;BME280;69521;54.454;9.928;2024-01-30T09:01:38;102351.41;;;5.09;86.95
80202;BME280;69521;54.454;9.928;2024-01-30T09:04:04;102347.38;;;5.20;87.37
80202;BME280;69521;54.454;9.928;2024-01-30T09:06:29;102363.22;;;5.24;86.68
80202;BME280;69521;54.454;9.928;2024-01-30T09:08:54;102359.31;;;5.31;86.48
80202;BME280;69521;54.454;9.928;2024-01-30T09:11:20;102360.84;;;5.37;86.90
80202;BME280;69521;54.454;9.928;2024-01-30T09:13:45;102360.78;;;5.38;86.31
80202;BME280;69521;54.454;9.928;2024-01-30T09:16:11;102344.75;;;5.38;85.98
80202;BME280;69521;54.454;9.928;2024-01-30T09:18:36;102347.94;;;5.47;86.00
80202;BME280;69521;54.454;9.928;2024-01-30T09:21:01;102353.94;;;5.52;85.79
80202;BME280;69521;54.454;9.928;2024-01-30T09:23:27;102360.94;;;5.54;85.57
80202;BME280;69521;54.454;9.928;2024-01-30T09:25:53;102354.59;;;5.57;85.46
80202;BME280;69521;54.454;9.928;2024-01-30T09:28:18;102356.19;;;5.61;85.95
80202;BME280;69521;54.454;9.928;2024-01-30T09:30:43;102353.28;;;5.65;85.17
80202;BME280;69521;54.454;9.928;2024-01-30T09:33:09;102358.25;;;5.73;85.34
80202;BME280;69521;54.454;9.928;2024-01-30T09:35:35;102344.63;;;5.79;85.27
80202;BME280;69521;54.454;9.928;2024-01-30T09:38:01;102344.25;;;5.87;85.48
80202;BME280;69521;54.454;9.928;2024-01-30T09:40:27;102348.31;;;5.95;84.82
80202;BME280;69521;54.454;9.928;2024-01-30T09:42:53;102365.06;;;5.99;84.39
80202;BME280;69521;54.454;9.928;2024-01-30T09:45:20;102363.34;;;6.17;84.62
80202;BME280;69521;54.454;9.928;2024-01-30T09:47:48;102374.03;;;6.17;84.55
80202;BME280;69521;54.454;9.928;2024-01-30T09:50:14;102374.75;;;6.20;83.76
80202;BME280;69521;54.454;9.928;2024-01-30T09:52:40;102376.31;;;6.24;84.00
80202;BME280;69521;54.454;9.928;2024-01-30T09:55:07;102372.41;;;6.31;83.49
80202;BME280;69521;54.454;9.928;2024-01-30T09:57:33;102367.91;;;6.32;83.26
80202;BME280;69521;54.454;9.928;2024-01-30T09:59:59;102348.13;;;6.36;82.91
80202;BME280;69521;54.454;9.928;2024-01-30T10:02:24;102337.13;;;6.42;83.03
80202;BME280;69521;54.454;9.928;2024-01-30T10:04:52;102332.47;;;6.46;82.99
80202;BME280;69521;54.454;9.928;2024-01-30T10:07:18;102318.72;;;6.36;82.95
80202;BME280;69521;54.454;9.928;2024-01-30T10:09:44;102332.63;;;6.43;83.20
80202;BME280;69521;54.454;9.928;2024-01-30T10:12:09;102327.91;;;6.48;83.48
80202;BME280;69521;54.454;9.928;2024-01-30T10:14:41;102311.09;;;6.46;83.93
80202;BME280;69521;54.454;9.928;2024-01-30T10:17:11;102315.56;;;6.45;83.28
80202;BME280;69521;54.454;9.928;2024-01-30T10:19:38;102318.00;;;6.50;83.26
80202;BME280;69521;54.454;9.928;2024-01-30T10:22:04;102317.00;;;6.52;82.80
80202;BME280;69521;54.454;9.928;2024-01-30T10:24:30;102304.41;;;6.54;82.75
80202;BME280;69521;54.454;9.928;2024-01-30T10:26:56;102304.63;;;6.67;82.82
80202;BME280;69521;54.454;9.928;2024-01-30T10:29:21;102307.22;;;6.68;83.28
80202;BME280;69521;54.454;9.928;2024-01-30T10:32:04;102301.72;;;6.71;83.81
80202;BME280;69521;54.454;9.928;2024-01-30T10:34:30;102294.66;;;6.70;82.81
80202;BME280;69521;54.454;9.928;2024-01-30T10:39:38;102296.06;;;6.78;82.82
80202;BME280;69521;54.454;9.928;2024-01-30T10:42:05;102290.47;;;6.82;82.54
80202;BME280;69521;54.454;9.928;2024-01-30T10:44:38;102290.38;;;6.84;82.59
80202;BME280;69521;54.454;9.928;2024-01-30T10:47:09;102304.28;;;6.90;83.13
80202;BME280;69521;54.454;9.928;2024-01-30T10:49:38;102303.50;;;6.88;82.14
80202;BME280;69521;54.454;9.928;2024-01-30T10:52:05;102306.09;;;6.90;82.77
80202;BME280;69521;54.454;9.928;2024-01-30T10:54:35;102311.84;;;6.82;82.71
80202;BME280;69521;54.454;9.928;2024-01-30T10:57:00;102303.91;;;6.81;83.15
80202;BME280;69521;54.454;9.928;2024-01-30T10:59:30;102301.88;;;6.86;82.79
80202;BME280;69521;54.454;9.928;2024-01-30T11:01:58;102311.94;;;6.81;82.38
80202;BME280;69521;54.454;9.928;2024-01-30T11:04:24;102315.72;;;6.77;83.31
80202;BME280;69521;54.454;9.928;2024-01-30T11:06:50;102312.97;;;6.78;83.59
80202;BME280;69521;54.454;9.928;2024-01-30T11:09:17;102315.72;;;6.77;83.20
80202;BME280;69521;54.454;9.928;2024-01-30T11:11:50;102325.31;;;6.81;83.83
80202;BME280;69521;54.454;9.928;2024-01-30T11:14:16;102333.25;;;6.82;84.08
80202;BME280;69521;54.454;9.928;2024-01-30T11:16:42;102329.56;;;6.85;84.22
80202;BME280;69521;54.454;9.928;2024-01-30T11:19:11;102320.59;;;6.86;83.30
80202;BME280;69521;54.454;9.928;2024-01-30T11:21:41;102316.81;;;6.90;82.64
80202;BME280;69521;54.454;9.928;2024-01-30T11:24:07;102309.56;;;6.92;82.74
80202;BME280;69521;54.454;9.928;2024-01-30T11:26:33;102311.28;;;6.93;82.90
80202;BME280;69521;54.454;9.928;2024-01-30T11:28:58;102307.91;;;6.89;83.41
80202;BME280;69521;54.454;9.928;2024-01-30T11:31:23;102311.44;;;6.90;83.26
80202;BME280;69521;54.454;9.928;2024-01-30T11:33:52;102318.41;;;6.94;83.59
80202;BME280;69521;54.454;9.928;2024-01-30T11:36:21;102309.44;;;6.95;83.68
80202;BME280;69521;54.454;9.928;2024-01-30T11:38:50;102289.75;;;6.96;83.31
80202;BME280;69521;54.454;9.928;2024-01-30T11:41:15;102290.63;;;6.96;84.07
80202;BME280;69521;54.454;9.928;2024-01-30T11:43:41;102280.78;;;6.97;83.84
80202;BME280;69521;54.454;9.928;2024-01-30T11:46:07;102267.41;;;6.97;83.96
80202;BME280;69521;54.454;9.928;2024-01-30T11:48:32;102272.75;;;6.97;83.54
80202;BME280;69521;54.454;9.928;2024-01-30T11:50:58;102276.31;;;6.97;83.63
80202;BME280;69521;54.454;9.928;2024-01-30T11:53:23;102277.88;;;7.01;83.81
80202;BME280;69521;54.454;9.928;2024-01-30T11:55:51;102277.63;;;7.06;84.02
80202;BME280;69521;54.454;9.928;2024-01-30T11:58:17;102265.88;;;7.09;83.87
80202;BME280;69521;54.454;9.928;2024-01-30T12:00:52;102249.75;;;7.10;84.29
80202;BME280;69521;54.454;9.928;2024-01-30T12:03:18;102270.13;;;7.13;84.17
80202;BME280;69521;54.454;9.928;2024-01-30T12:05:43;102269.25;;;7.12;84.14
80202;BME280;69521;54.454;9.928;2024-01-30T12:08:15;102263.81;;;7.14;83.72
80202;BME280;69521;54.454;9.928;2024-01-30T12:10:40;102264.50;;;7.17;84.03
80202;BME280;69521;54.454;9.928;2024-01-30T12:13:06;102247.94;;;7.26;83.56
80202;BME280;69521;54.454;9.928;2024-01-30T12:15:31;102254.84;;;7.30;83.53
80202;BME280;69521;54.454;9.928;2024-01-30T12:18:04;102251.31;;;7.30;83.17
80202;BME280;69521;54.454;9.928;2024-01-30T12:20:30;102252.63;;;7.39;82.92
80202;BME280;69521;54.454;9.928;2024-01-30T12:22:55;102252.53;;;7.40;82.17
80202;BME280;69521;54.454;9.928;2024-01-30T12:25:21;102251.66;;;7.40;82.87
80202;BME280;69521;54.454;9.928;2024-01-30T12:27:49;102244.75;;;7.35;83.09
80202;BME280;69521;54.454;9.928;2024-01-30T12:30:15;102239.06;;;7.42;82.58
80202;BME280;69521;54.454;9.928;2024-01-30T12:32:46;102238.81;;;7.46;83.29
80202;BME280;69521;54.454;9.928;2024-01-30T12:35:19;102236.22;;;7.45;83.42
80202;BME280;69521;54.454;9.928;2024-01-30T12:37:46;102241.66;;;7.43;84.14
80202;BME280;69521;54.454;9.928;2024-01-30T12:40:14;102246.16;;;7.43;83.59
80202;BME280;69521;54.454;9.928;2024-01-30T12:42:45;102244.16;;;7.46;83.67
80202;BME280;69521;54.454;9.928;2024-01-30T12:45:13;102260.91;;;7.50;83.67
80202;BME280;69521;54.454;9.928;2024-01-30T12:47:40;102252.88;;;7.50;82.67
80202;BME280;69521;54.454;9.928;2024-01-30T12:50:06;102256.50;;;7.49;84.01
80202;BME280;69521;54.454;9.928;2024-01-30T12:52:31;102234.91;;;7.52;82.93
80202;BME280;69521;54.454;9.928;2024-01-30T12:54:56;102236.63;;;7.53;83.45
80202;BME280;69521;54.454;9.928;2024-01-30T12:57:22;102233.88;;;7.54;83.18